Time;durP1;ratioP1;P1;durP2;ratioP2;P2;SDS_P1;SDS_P2;PMS_P1;PMS_P2;Temp;Humidity;BMP_temperature;BMP_pressure;BME280_temperature;BME280_humidity;BME280_pressure;Samples;Min_cycle;Max_cycle;Signal;HPM_P1;HPM_P2
2023/07/13 00:01:49;;;;;;;12.27;5.88;;;;;;;17.81;100.00;96651.09;4984820;28;20109;-70
2023/07/13 00:04:20;;;;;;;9.13;4.75;;;;;;;17.70;100.00;96656.78;4979553;28;20034;-70
2023/07/13 00:06:46;;;;;;;8.05;4.60;;;;;;;17.63;100.00;96665.97;4981710;28;20053;-70
2023/07/13 00:09:16;;;;;;;9.93;3.88;;;;;;;17.65;100.00;96673.88;4981393;28;20038;-71
2023/07/13 00:11:42;;;;;;;;;;;;;;;17.59;100.00;96670.75;4981996;28;20038;-69
2023/07/13 00:14:09;;;;;;;9.88;4.53;;;;;;;17.65;100.00;96674.66;4992556;28;19929;-70
2023/07/13 00:16:36;;;;;;;7.80;4.82;;;;;;;17.71;100.00;96681.28;4999869;28;20046;-70
2023/07/13 00:19:02;;;;;;;8.60;4.22;;;;;;;17.70;100.00;96681.72;4982197;28;20383;-70
2023/07/13 00:21:28;;;;;;;9.75;4.85;;;;;;;17.58;100.00;96692.13;4983009;28;20050;-70
2023/07/13 00:23:53;;;;;;;8.82;4.63;;;;;;;17.56;100.00;96677.13;4973393;28;20077;-69
2023/07/13 00:26:18;;;;;;;7.47;4.50;;;;;;;17.67;100.00;96682.56;4961842;28;20126;-68
2023/07/13 00:28:44;;;;;;;7.15;4.40;;;;;;;17.72;100.00;96674.56;4966266;28;20046;-68
2023/07/13 00:31:12;;;;;;;6.38;4.15;;;;;;;17.66;100.00;96680.97;4961806;28;20531;-69
2023/07/13 00:33:37;;;;;;;12.80;4.90;;;;;;;17.63;100.00;96679.81;4964441;28;20050;-70
2023/07/13 00:36:03;;;;;;;8.77;5.20;;;;;;;17.70;100.00;96688.06;4964415;28;20483;-66
2023/07/13 00:38:30;;;;;;;11.77;5.25;;;;;;;17.78;100.00;96680.44;4964809;28;20043;-69
2023/07/13 00:40:55;;;;;;;10.30;4.63;;;;;;;17.80;100.00;96683.56;4949773;28;20057;-69
2023/07/13 00:43:23;;;;;;;10.63;4.72;;;;;;;17.82;100.00;96680.38;4961310;28;20038;-69
2023/07/13 00:45:48;;;;;;;7.57;4.60;;;;;;;17.83;100.00;96684.75;4967202;28;20054;-69
2023/07/13 00:48:27;;;;;;;6.22;4.57;;;;;;;17.88;100.00;96682.31;4962103;28;20046;-71
2023/07/13 00:50:56;;;;;;;12.97;4.70;;;;;;;17.80;100.00;96680.78;4968443;28;20046;-69
2023/07/13 00:53:24;;;;;;;9.93;4.50;;;;;;;17.46;100.00;96680.81;4965383;28;22397;-69
2023/07/13 00:55:53;;;;;;;13.70;6.15;;;;;;;17.00;100.00;96674.56;4969778;28;20114;-69
2023/07/13 00:58:19;;;;;;;9.50;5.65;;;;;;;16.54;100.00;96676.47;4963912;28;20110;-69
2023/07/13 01:00:46;;;;;;;13.07;6.13;;;;;;;16.47;100.00;96684.81;4969669;28;20050;-69
2023/07/13 01:03:12;;;;;;;10.55;7.18;;;;;;;16.34;100.00;96667.16;4965861;28;20471;-69
2023/07/13 01:05:38;;;;;;;11.68;6.88;;;;;;;16.31;100.00;96673.50;4969233;28;20070;-68
2023/07/13 01:08:05;;;;;;;14.10;6.80;;;;;;;16.37;100.00;96669.13;4965630;28;20049;-69
2023/07/13 01:10:38;;;;;;;11.57;7.13;;;;;;;16.44;100.00;96666.31;4969691;28;20046;-69
2023/07/13 01:13:10;;;;;;;12.48;6.78;;;;;;;16.49;100.00;96668.63;4971269;28;20039;-70
2023/07/13 01:15:40;;;;;;;10.52;6.72;;;;;;;16.71;100.00;96672.00;4970459;28;20053;-68
2023/07/13 01:18:10;;;;;;;10.50;6.35;;;;;;;16.89;100.00;96665.56;4962595;28;20054;-68
2023/07/13 01:20:36;;;;;;;8.57;6.07;;;;;;;17.04;100.00;96667.00;4967112;28;20047;-68
2023/07/13 01:23:07;;;;;;;13.43;5.45;;;;;;;17.10;100.00;96661.81;4986998;28;20407;-68
2023/07/13 01:25:35;;;;;;;12.55;5.53;;;;;;;16.93;100.00;96664.34;4984958;28;20039;-69
2023/07/13 01:28:00;;;;;;;9.68;5.15;;;;;;;16.93;100.00;96678.16;4988765;28;20070;-69
2023/07/13 01:30:25;;;;;;;13.52;5.93;;;;;;;17.04;100.00;96671.75;4983552;28;20069;-69
2023/07/13 01:32:51;;;;;;;10.88;5.47;;;;;;;16.96;100.00;96666.28;4987387;28;20133;-68
2023/07/13 01:35:16;;;;;;;9.85;5.60;;;;;;;16.87;100.00;96671.53;4982931;28;20046;-68
2023/07/13 01:37:42;;;;;;;9.23;5.30;;;;;;;16.93;100.00;96669.88;4987844;28;20456;-69
2023/07/13 01:40:08;;;;;;;8.20;4.78;;;;;;;17.01;100.00;96665.06;4963522;28;20141;-69
2023/07/13 01:42:34;;;;;;;12.95;5.55;;;;;;;17.10;100.00;96668.13;4985142;28;20077;-69
2023/07/13 01:44:59;;;;;;;9.23;5.85;;;;;;;17.09;100.00;96669.34;4967955;28;20050;-70
2023/07/13 01:47:26;;;;;;;13.85;6.13;;;;;;;16.91;100.00;96663.97;4985012;28;20049;-69
2023/07/13 01:49:51;;;;;;;9.27;6.40;;;;;;;16.82;100.00;96674.69;4987735;28;20038;-69
2023/07/13 01:52:17;;;;;;;10.15;5.70;;;;;;;16.82;100.00;96669.16;4985083;28;20538;-70
2023/07/13 01:54:42;;;;;;;8.50;5.43;;;;;;;16.94;100.00;96651.28;4985765;28;20046;-69
2023/07/13 01:57:08;;;;;;;15.52;6.97;;;;;;;16.74;100.00;96654.59;4980806;28;20042;-69
2023/07/13 01:59:34;;;;;;;11.18;7.78;;;;;;;16.63;100.00;96651.13;4983396;28;20035;-69
2023/07/13 02:01:59;;;;;;;10.70;7.05;;;;;;;16.30;100.00;96650.59;4987899;28;20050;-69
2023/07/13 02:04:24;;;;;;;15.77;7.32;;;;;;;16.11;100.00;96642.84;4983501;28;20089;-68
2023/07/13 02:06:50;;;;;;;12.10;7.50;;;;;;;16.03;100.00;96640.13;4985930;28;20034;-68
2023/07/13 02:09:15;;;;;;;16.17;8.77;;;;;;;15.97;100.00;96638.97;4981324;28;20146;-69
2023/07/13 02:11:40;;;;;;;13.63;9.10;;;;;;;15.96;100.00;96650.44;4985290;28;20062;-69
2023/07/13 02:14:06;;;;;;;17.27;9.02;;;;;;;15.99;100.00;96650.41;4979898;28;20107;-68
2023/07/13 02:16:31;;;;;;;16.67;8.95;;;;;;;16.02;100.00;96646.03;4966252;28;20039;-69
2023/07/13 02:18:57;;;;;;;19.35;9.10;;;;;;;16.07;100.00;96651.13;4978769;28;20046;-68
2023/07/13 02:21:23;;;;;;;16.80;8.70;;;;;;;16.20;100.00;96646.69;4962928;28;21023;-69
2023/07/13 02:23:50;;;;;;;14.45;8.65;;;;;;;16.25;100.00;96640.75;4968984;28;20491;-69
2023/07/13 02:26:15;;;;;;;16.00;7.95;;;;;;;16.25;100.00;96648.25;4978629;28;20058;-68
2023/07/13 02:28:41;;;;;;;14.30;7.75;;;;;;;16.35;100.00;96655.69;4971046;28;20546;-68
2023/07/13 02:31:13;;;;;;;10.90;6.90;;;;;;;16.58;100.00;96657.09;4959740;28;20042;-67
2023/07/13 02:33:38;;;;;;;11.43;7.00;;;;;;;16.64;100.00;96661.00;4962792;28;20042;-74
2023/07/13 02:36:05;;;;;;;11.98;6.88;;;;;;;16.74;100.00;96667.63;4974527;28;20049;-68
2023/07/13 02:38:33;;;;;;;14.52;7.15;;;;;;;16.79;100.00;96664.44;4982507;28;20042;-69
2023/07/13 02:40:59;;;;;;;11.10;7.25;;;;;;;16.81;100.00;96651.75;4984742;28;20046;-70
2023/07/13 02:43:25;;;;;;;20.13;6.35;;;;;;;16.86;100.00;96671.94;4979091;28;20112;-69
2023/07/13 02:45:51;;;;;;;10.25;6.05;;;;;;;16.89;100.00;96677.44;4983635;28;20039;-69
2023/07/13 02:48:16;;;;;;;8.77;6.22;;;;;;;16.96;100.00;96682.91;4979614;28;20478;-70
2023/07/13 02:50:41;;;;;;;11.65;5.90;;;;;;;17.03;100.00;96684.00;4983450;28;20030;-68
2023/07/13 02:53:07;;;;;;;10.60;6.10;;;;;;;17.11;100.00;96680.00;4978038;28;20046;-68
2023/07/13 02:55:32;;;;;;;11.50;6.00;;;;;;;17.22;100.00;96680.66;4983701;28;20070;-67
2023/07/13 02:57:58;;;;;;;9.38;5.82;;;;;;;17.29;100.00;96677.81;4984252;28;20138;-67
2023/07/13 03:00:23;;;;;;;12.65;6.20;;;;;;;17.33;100.00;96675.78;4985365;28;20819;-67
2023/07/13 03:02:49;;;;;;;7.55;5.07;;;;;;;17.40;100.00;96677.72;4984198;28;20076;-68
2023/07/13 03:05:16;;;;;;;12.32;6.25;;;;;;;17.44;100.00;96681.22;4978655;28;20038;-69
2023/07/13 03:07:42;;;;;;;10.55;5.82;;;;;;;17.44;100.00;96685.97;4985215;28;20085;-68
2023/07/13 03:10:08;;;;;;;11.48;5.80;;;;;;;17.19;100.00;96690.56;4992751;28;20042;-68
2023/07/13 03:12:33;;;;;;;9.55;6.00;;;;;;;17.01;100.00;96687.19;4997776;28;20097;-69
2023/07/13 03:14:58;;;;;;;10.45;6.38;;;;;;;16.87;100.00;96676.25;4990456;28;20046;-67
2023/07/13 03:17:24;;;;;;;19.10;7.18;;;;;;;16.72;100.00;96676.34;4978630;28;20047;-68
2023/07/13 03:19:50;;;;;;;14.93;7.68;;;;;;;16.63;100.00;96676.03;4986746;28;20096;-68
2023/07/13 03:22:19;;;;;;;13.93;7.55;;;;;;;16.66;100.00;96677.97;4997477;28;20084;-67
2023/07/13 03:24:45;;;;;;;20.58;7.60;;;;;;;16.69;100.00;96681.91;4996746;28;20589;-69
2023/07/13 03:27:11;;;;;;;13.23;7.75;;;;;;;16.76;100.00;96690.13;4979040;28;20045;-67
2023/07/13 03:29:36;;;;;;;12.60;6.82;;;;;;;16.87;100.00;96690.06;4982778;28;20042;-68
2023/07/13 03:32:02;;;;;;;12.23;6.28;;;;;;;16.96;100.00;96685.66;4979056;28;20043;-68
2023/07/13 03:34:27;;;;;;;17.02;7.78;;;;;;;16.77;100.00;96691.72;4980169;28;20126;-68
2023/07/13 03:36:56;;;;;;;16.73;7.43;;;;;;;16.69;100.00;96679.94;4983521;28;20042;-68
2023/07/13 03:39:22;;;;;;;19.83;7.72;;;;;;;16.73;100.00;96690.97;4977757;28;20045;-67
2023/07/13 03:41:47;;;;;;;14.98;7.53;;;;;;;16.77;100.00;96698.03;4981941;28;20054;-70
2023/07/13 03:44:13;;;;;;;14.70;7.00;;;;;;;16.91;100.00;96697.16;4977381;28;20034;-67
2023/07/13 03:46:38;;;;;;;14.30;6.93;;;;;;;16.96;100.00;96702.25;4982442;28;20042;-68
2023/07/13 03:49:05;;;;;;;14.75;7.93;;;;;;;16.94;100.00;96690.81;4977749;28;20038;-68
2023/07/13 03:51:31;;;;;;;16.10;7.45;;;;;;;16.94;100.00;96695.53;4982909;28;20042;-69
2023/07/13 03:53:56;;;;;;;14.13;7.60;;;;;;;16.82;100.00;96700.38;4981570;28;20557;-70
2023/07/13 03:56:23;;;;;;;17.65;7.53;;;;;;;16.88;100.00;96705.50;4977273;28;20687;-69
2023/07/13 03:58:50;;;;;;;14.60;7.72;;;;;;;16.84;100.00;96697.22;4983653;28;20439;-69
2023/07/13 04:01:18;;;;;;;16.35;7.65;;;;;;;16.70;100.00;96702.84;4978208;28;20450;-70
2023/07/13 04:03:46;;;;;;;15.65;8.95;;;;;;;16.68;100.00;96706.00;4982751;28;20058;-68
2023/07/13 04:06:20;;;;;;;13.55;7.95;;;;;;;16.72;100.00;96706.75;4977847;28;20042;-69
2023/07/13 04:08:48;;;;;;;10.15;7.28;;;;;;;16.87;100.00;96713.00;4979781;28;20039;-68
2023/07/13 04:11:13;;;;;;;17.10;8.45;;;;;;;16.96;100.00;96710.56;4977471;28;20093;-68
2023/07/13 04:13:39;;;;;;;16.98;8.05;;;;;;;16.92;100.00;96706.25;4981018;28;20403;-70
2023/07/13 04:16:05;;;;;;;13.07;7.50;;;;;;;16.92;100.00;96707.00;4976084;28;20042;-69
2023/07/13 04:18:30;;;;;;;13.63;7.60;;;;;;;16.96;100.00;96702.25;4982467;28;20042;-69
2023/07/13 04:20:55;;;;;;;14.40;7.53;;;;;;;16.91;100.00;96702.69;4981646;28;20133;-69
2023/07/13 04:23:21;;;;;;;14.85;7.63;;;;;;;16.92;100.00;96703.47;4977507;28;20042;-70
2023/07/13 04:25:49;;;;;;;13.50;7.90;;;;;;;16.93;100.00;96711.38;4977667;28;20213;-68
2023/07/13 04:28:17;;;;;;;10.68;7.22;;;;;;;16.91;100.00;96713.75;4976813;28;20101;-68
2023/07/13 04:30:42;;;;;;;12.63;7.20;;;;;;;17.08;100.00;96717.56;4982903;28;20050;-68
2023/07/13 04:33:08;;;;;;;11.77;7.30;;;;;;;17.22;100.00;96722.19;4977852;28;20046;-68
2023/07/13 04:35:34;;;;;;;12.13;6.80;;;;;;;17.35;100.00;96716.91;4981816;28;20049;-70
2023/07/13 04:38:00;;;;;;;12.85;6.97;;;;;;;17.41;100.00;96714.47;4982864;28;20046;-68
2023/07/13 04:40:27;;;;;;;13.57;7.80;;;;;;;17.41;100.00;96722.78;4977475;28;20040;-69
2023/07/13 04:42:53;;;;;;;14.80;7.20;;;;;;;17.53;100.00;96720.28;4981794;28;20034;-70
2023/07/13 04:45:19;;;;;;;9.75;6.57;;;;;;;17.71;100.00;96727.59;4977006;28;20050;-69
2023/07/13 04:47:45;;;;;;;13.23;7.22;;;;;;;17.75;100.00;96728.34;4982199;28;20491;-69
2023/07/13 04:50:18;;;;;;;10.68;7.10;;;;;;;17.64;100.00;96730.44;4978457;28;20048;-71
2023/07/13 04:52:44;;;;;;;14.02;7.03;;;;;;;17.58;100.00;96738.44;4980253;28;20066;-70
2023/07/13 04:55:09;;;;;;;10.07;6.38;;;;;;;17.70;100.00;96735.13;4976709;28;20105;-68
2023/07/13 04:57:35;;;;;;;11.20;6.07;;;;;;;17.85;100.00;96734.97;4980122;28;20053;-69
2023/07/13 05:00:01;;;;;;;14.50;6.78;;;;;;;17.98;100.00;96738.78;4983439;28;20042;-69
2023/07/13 05:02:28;;;;;;;13.80;7.57;;;;;;;18.11;100.00;96737.06;4977730;28;20565;-71
2023/07/13 05:04:53;;;;;;;10.35;7.00;;;;;;;18.08;100.00;96732.34;4982531;28;20121;-68
2023/07/13 05:07:18;;;;;;;13.43;6.55;;;;;;;18.19;100.00;96736.97;4976848;28;20508;-70
2023/07/13 05:09:44;;;;;;;11.23;6.47;;;;;;;18.15;100.00;96731.47;4980925;28;20168;-69
2023/07/13 05:12:10;;;;;;;15.98;7.53;;;;;;;18.29;100.00;96731.28;4974821;28;20069;-67
2023/07/13 05:14:36;;;;;;;13.60;6.82;;;;;;;18.00;100.00;96738.38;4981285;28;20538;-70
2023/07/13 05:17:02;;;;;;;17.48;7.63;;;;;;;18.00;100.00;96743.91;4979953;28;20476;-67
2023/07/13 05:19:28;;;;;;;11.68;7.20;;;;;;;17.93;100.00;96745.59;4979295;28;20041;-69
2023/07/13 05:21:53;;;;;;;10.88;7.07;;;;;;;18.00;100.00;96752.22;4981202;28;20053;-68
2023/07/13 05:24:18;;;;;;;11.82;8.00;;;;;;;18.00;100.00;96753.00;4982608;28;20553;-69
2023/07/13 05:26:44;;;;;;;14.10;6.97;;;;;;;17.91;100.00;96753.50;4986966;28;20046;-68
2023/07/13 05:29:10;;;;;;;14.80;8.52;;;;;;;17.84;100.00;96748.03;4983176;28;20042;-71
2023/07/13 05:31:36;;;;;;;12.77;8.32;;;;;;;17.69;100.00;96752.94;4982692;28;20099;-70
2023/07/13 05:34:02;;;;;;;11.75;8.70;;;;;;;17.92;100.00;96766.16;4983242;28;20121;-70
2023/07/13 05:36:27;;;;;;;14.95;8.48;;;;;;;18.22;100.00;96770.19;4982260;28;20046;-70
2023/07/13 05:38:52;;;;;;;11.38;8.00;;;;;;;18.43;100.00;96765.53;4984602;28;20042;-70
2023/07/13 05:41:18;;;;;;;10.55;7.25;;;;;;;18.66;100.00;96762.84;4981222;28;20084;-69
2023/07/13 05:43:43;;;;;;;12.20;7.30;;;;;;;18.90;100.00;96769.22;4983397;28;20041;-71
2023/07/13 05:46:09;;;;;;;11.70;6.95;;;;;;;19.12;100.00;96780.00;4980389;28;20430;-70
2023/07/13 05:48:34;;;;;;;15.27;7.18;;;;;;;19.30;100.00;96774.16;4984967;28;20043;-71
2023/07/13 05:51:01;;;;;;;14.02;7.00;;;;;;;19.44;100.00;96773.91;4983715;28;20042;-71
2023/07/13 05:53:26;;;;;;;9.82;5.85;;;;;;;19.53;100.00;96780.91;4995520;28;20767;-70
2023/07/13 05:55:54;;;;;;;15.25;5.65;;;;;;;19.65;100.00;96781.06;4982906;28;20130;-70
2023/07/13 05:58:20;;;;;;;8.15;4.60;;;;;;;19.77;100.00;96799.16;4979726;28;20042;-69
2023/07/13 06:00:47;;;;;;;10.18;4.85;;;;;;;19.93;100.00;96795.66;4984865;28;20046;-70
2023/07/13 06:03:12;;;;;;;8.80;4.95;;;;;;;20.16;100.00;96794.03;4980449;28;20502;-69
2023/07/13 06:05:38;;;;;;;6.70;4.40;;;;;;;20.35;100.00;96789.69;4985258;28;20046;-72
2023/07/13 06:08:05;;;;;;;9.30;5.30;;;;;;;20.54;100.00;96799.22;4978977;28;20038;-68
2023/07/13 06:10:35;;;;;;;10.52;5.90;;;;;;;20.55;100.00;96800.78;4987920;28;20038;-69
2023/07/13 06:13:01;;;;;;;11.68;4.95;;;;;;;20.50;100.00;96809.63;4985330;28;20451;-69
2023/07/13 06:15:27;;;;;;;13.25;5.68;;;;;;;20.25;100.00;96808.94;4980732;28;20133;-71
2023/07/13 06:17:52;;;;;;;16.42;5.85;;;;;;;20.17;100.00;96801.97;4984621;28;20034;-70
2023/07/13 06:20:18;;;;;;;9.98;4.78;;;;;;;20.22;100.00;96809.00;4979587;28;20108;-70
2023/07/13 06:22:43;;;;;;;10.13;4.82;;;;;;;20.31;100.00;96806.47;4984603;28;20092;-69
2023/07/13 06:25:09;;;;;;;9.07;5.53;;;;;;;20.07;100.00;96814.06;4980630;28;20061;-69
2023/07/13 06:27:34;;;;;;;9.82;5.10;;;;;;;20.09;100.00;96822.75;4964322;28;20138;-69
2023/07/13 06:29:59;;;;;;;8.88;4.88;;;;;;;19.99;100.00;96824.56;4985330;28;20053;-69
2023/07/13 06:32:25;;;;;;;8.02;4.93;;;;;;;19.97;100.00;96820.59;4981607;28;20133;-68
2023/07/13 06:34:51;;;;;;;8.65;5.50;;;;;;;20.05;100.00;96824.84;4984951;28;20045;-71
2023/07/13 06:37:17;;;;;;;10.60;5.53;;;;;;;19.96;100.00;96830.19;4980216;28;20547;-70
2023/07/13 06:39:43;;;;;;;10.60;5.25;;;;;;;19.91;100.00;96830.66;4985857;28;20046;-70
2023/07/13 06:42:08;;;;;;;8.90;5.40;;;;;;;19.78;100.00;96842.41;4979961;28;20096;-69
2023/07/13 06:44:34;;;;;;;11.90;6.45;;;;;;;19.88;100.00;96837.06;4985171;28;20156;-69
2023/07/13 06:46:59;;;;;;;10.98;5.95;;;;;;;20.07;100.00;96841.09;4985704;28;20042;-70
2023/07/13 06:49:24;;;;;;;11.80;5.68;;;;;;;20.08;100.00;96835.13;4982036;28;20129;-72
2023/07/13 06:51:50;;;;;;;11.15;6.20;;;;;;;19.99;100.00;96835.66;4985203;28;20046;-70
2023/07/13 06:54:15;;;;;;;11.35;5.70;;;;;;;19.99;100.00;96841.22;4979608;28;20551;-70
2023/07/13 06:56:41;;;;;;;10.73;6.13;;;;;;;20.03;100.00;96838.38;4982417;28;20125;-71
2023/07/13 06:59:06;;;;;;;8.68;5.03;;;;;;;19.94;100.00;96838.94;4982362;28;20526;-68
2023/07/13 07:01:31;;;;;;;16.38;5.90;;;;;;;19.93;100.00;96847.69;4990949;28;20042;-69
2023/07/13 07:03:57;;;;;;;12.27;5.78;;;;;;;19.96;100.00;96850.41;4987814;28;20038;-68
2023/07/13 07:06:23;;;;;;;13.40;6.05;;;;;;;19.98;100.00;96856.31;4983069;28;20054;-69
2023/07/13 07:08:49;;;;;;;10.50;5.68;;;;;;;19.99;100.00;96855.13;4984514;28;20070;-71
2023/07/13 07:11:19;;;;;;;8.35;4.43;;;;;;;19.88;100.00;96864.84;4980208;28;20042;-71
2023/07/13 07:13:45;;;;;;;10.68;4.55;;;;;;;19.95;100.00;96868.31;4979619;28;20081;-70
2023/07/13 07:16:11;;;;;;;7.63;3.55;;;;;;;20.01;100.00;96874.94;4960778;28;20055;-70
2023/07/13 07:18:36;;;;;;;6.60;2.97;;;;;;;20.06;100.00;96879.25;4964962;28;20448;-70
2023/07/13 07:21:02;;;;;;;11.63;2.70;;;;;;;20.05;100.00;96886.78;4963836;28;20054;-70
2023/07/13 07:23:27;;;;;;;8.57;3.08;;;;;;;20.04;100.00;96879.66;4964369;28;20396;-71
2023/07/13 07:25:53;;;;;;;8.27;2.42;;;;;;;20.06;100.00;96884.81;4967535;28;20042;-69
2023/07/13 07:28:18;;;;;;;7.90;2.85;;;;;;;20.16;100.00;96883.03;4981428;28;20110;-71
2023/07/13 07:30:47;;;;;;;7.43;2.45;;;;;;;20.18;100.00;96880.59;4991844;28;20038;-69
2023/07/13 07:33:14;;;;;;;5.70;2.58;;;;;;;20.20;100.00;96881.75;4984150;28;20395;-70
2023/07/13 07:35:40;;;;;;;6.57;2.33;;;;;;;20.18;100.00;96884.16;4988921;28;20046;-69
2023/07/13 07:38:05;;;;;;;6.35;1.88;;;;;;;20.18;100.00;96891.72;4978051;28;20038;-69
2023/07/13 07:40:31;;;;;;;4.93;2.50;;;;;;;20.12;100.00;96888.66;4986781;28;20070;-69
2023/07/13 07:42:57;;;;;;;9.30;2.88;;;;;;;19.95;100.00;96886.97;4991957;28;20034;-70
2023/07/13 07:45:23;;;;;;;12.90;2.92;;;;;;;19.81;100.00;96890.81;4989358;28;20054;-70
2023/07/13 07:47:48;;;;;;;8.95;1.98;;;;;;;19.96;100.00;96894.88;4987711;28;20053;-69
2023/07/13 07:50:14;;;;;;;10.27;2.50;;;;;;;20.12;100.00;96894.22;4984750;28;20042;-70
2023/07/13 07:52:39;;;;;;;5.10;2.28;;;;;;;20.17;100.00;96902.06;4995448;28;20042;-70
2023/07/13 07:55:06;;;;;;;11.93;2.63;;;;;;;20.12;100.00;96902.56;4985156;28;20050;-68
2023/07/13 07:57:32;;;;;;;13.52;3.72;;;;;;;20.18;100.00;96900.84;4982500;28;20484;-69
2023/07/13 07:59:57;;;;;;;7.50;2.25;;;;;;;20.01;100.00;96904.75;4984610;28;20061;-70
2023/07/13 08:02:24;;;;;;;5.82;2.30;;;;;;;19.89;100.00;96906.13;4978291;28;20294;-70
2023/07/13 08:04:50;;;;;;;7.72;2.70;;;;;;;19.39;100.00;96898.56;4983960;28;20046;-70
2023/07/13 08:07:15;;;;;;;14.13;3.47;;;;;;;19.42;100.00;96904.06;4979653;28;20034;-70
2023/07/13 08:09:41;;;;;;;7.22;2.60;;;;;;;19.56;100.00;96905.06;4982262;28;20130;-70
2023/07/13 08:12:06;;;;;;;11.13;2.55;;;;;;;19.80;100.00;96903.88;4980378;28;20045;-70
2023/07/13 08:14:32;;;;;;;12.50;2.15;;;;;;;19.88;100.00;96915.69;4985437;28;20355;-71
2023/07/13 08:16:58;;;;;;;7.85;2.15;;;;;;;20.04;100.00;96912.22;4982583;28;20046;-70
2023/07/13 08:19:24;;;;;;;6.97;2.25;;;;;;;20.29;100.00;96914.53;4982679;28;20078;-71
2023/07/13 08:21:50;;;;;;;9.20;2.30;;;;;;;20.46;100.00;96914.66;4987539;28;20046;-69
2023/07/13 08:24:15;;;;;;;5.72;1.90;;;;;;;20.48;100.00;96910.22;4977223;28;20098;-69
2023/07/13 08:26:40;;;;;;;4.38;1.83;;;;;;;20.44;100.00;96913.06;4996662;28;20419;-69
2023/07/13 08:29:06;;;;;;;6.13;2.00;;;;;;;20.51;100.00;96909.38;4986590;28;20034;-69
2023/07/13 08:31:31;;;;;;;5.28;1.85;;;;;;;20.43;100.00;96910.72;4982795;28;20119;-70
2023/07/13 08:33:57;;;;;;;12.68;2.83;;;;;;;20.44;100.00;96915.84;4982856;28;20038;-69
2023/07/13 08:36:22;;;;;;;4.40;2.20;;;;;;;20.41;100.00;96916.69;4988649;28;20577;-69
2023/07/13 08:38:47;;;;;;;5.97;2.13;;;;;;;20.49;100.00;96909.03;4977023;28;20045;-69
2023/07/13 08:41:17;;;;;;;6.30;1.95;;;;;;;20.67;100.00;96908.69;4987087;28;20555;-70
2023/07/13 08:43:49;;;;;;;4.03;1.70;;;;;;;21.11;99.93;96908.56;4978587;28;20038;-70
2023/07/13 08:46:23;;;;;;;9.95;2.33;;;;;;;22.38;100.00;96907.88;4974152;28;20077;-69
2023/07/13 08:48:53;;;;;;;6.25;2.30;;;;;;;23.22;86.81;96913.47;4981257;28;20039;-70
2023/07/13 08:51:27;;;;;;;6.95;2.05;;;;;;;23.61;83.47;96917.06;4960530;28;20046;-70
2023/07/13 08:53:58;;;;;;;6.80;2.03;;;;;;;24.94;74.59;96934.94;4971674;28;20516;-69
2023/07/13 08:56:26;;;;;;;6.32;1.70;;;;;;;25.97;64.75;96936.97;4962795;28;20078;-70
2023/07/13 08:59:00;;;;;;;5.03;1.65;;;;;;;26.36;59.81;96942.94;4968395;28;20070;-70
2023/07/13 09:01:47;;;;;;;7.18;1.58;;;;;;;26.15;58.13;96936.25;4962201;28;20050;-69
2023/07/13 09:04:22;;;;;;;4.95;1.20;;;;;;;26.59;54.56;96935.94;4967903;28;20496;-69
2023/07/13 09:06:55;;;;;;;5.00;1.10;;;;;;;25.82;54.31;96933.16;4967110;28;20408;-69
2023/07/13 09:09:34;;;;;;;5.05;1.30;;;;;;;26.88;54.15;96932.69;4963417;28;20468;-70
2023/07/13 09:12:14;;;;;;;4.95;1.30;;;;;;;26.13;51.49;96938.72;4966057;28;20074;-70
2023/07/13 09:14:50;;;;;;;5.05;1.42;;;;;;;26.91;47.07;96935.81;4966929;28;20110;-70
2023/07/13 09:17:24;;;;;;;6.25;1.40;;;;;;;27.64;44.95;96940.44;4961276;28;20039;-69
2023/07/13 09:19:58;;;;;;;3.30;1.42;;;;;;;27.76;46.20;96933.81;4967923;28;20039;-69
2023/07/13 09:22:28;;;;;;;5.35;1.35;;;;;;;28.28;46.59;96927.31;4961465;28;20541;-70
2023/07/13 09:25:04;;;;;;;8.05;1.48;;;;;;;26.70;45.07;96938.31;4965810;28;20081;-70
2023/07/13 09:27:42;;;;;;;4.88;1.17;;;;;;;25.75;49.64;96937.84;4965440;28;20072;-68
2023/07/13 09:30:14;;;;;;;6.60;1.70;;;;;;;27.53;47.38;96945.81;4977012;28;20577;-70
2023/07/13 09:32:50;;;;;;;5.72;1.13;;;;;;;27.27;43.36;96952.59;4985296;28;20048;-69
2023/07/13 09:35:21;;;;;;;4.22;1.17;;;;;;;28.18;41.45;96946.28;4982765;28;20047;-69
2023/07/13 09:37:47;;;;;;;4.95;1.00;;;;;;;26.16;41.83;96951.81;4988425;28;20041;-69
2023/07/13 09:40:30;;;;;;;3.83;0.98;;;;;;;22.90;49.69;96942.31;4981523;28;20045;-70
2023/07/13 09:42:58;;;;;;;4.03;1.20;;;;;;;24.46;50.43;96933.47;4989459;28;20038;-68
2023/07/13 09:45:33;;;;;;;3.22;1.17;;;;;;;24.56;46.71;96946.31;4980703;28;21017;-69
2023/07/13 09:48:05;;;;;;;2.78;1.15;;;;;;;24.63;49.55;96943.25;4986908;28;20093;-69
2023/07/13 09:50:30;;;;;;;5.30;1.17;;;;;;;25.94;46.41;96941.47;4970212;28;20046;-69
2023/07/13 09:52:59;;;;;;;3.53;0.80;;;;;;;26.00;45.65;96941.69;4966269;28;20487;-69
2023/07/13 09:55:30;;;;;;;2.35;1.00;;;;;;;26.35;43.84;96951.88;4961789;28;20094;-68
2023/07/13 09:57:55;;;;;;;7.35;1.20;;;;;;;26.81;45.09;96940.66;4965383;28;20035;-69
2023/07/13 10:00:28;;;;;;;6.13;1.08;;;;;;;26.82;43.67;96947.84;4961592;28;20145;-68
2023/07/13 10:03:15;;;;;;;4.65;1.05;;;;;;;26.33;45.43;96953.09;4965506;28;20566;-69
2023/07/13 10:05:44;;;;;;;2.55;1.08;;;;;;;26.47;44.92;96962.16;4965881;28;20420;-68
2023/07/13 10:08:33;;;;;;;4.57;1.13;;;;;;;24.77;47.47;96955.97;4961070;28;20042;-70
2023/07/13 10:11:33;;;;;;;5.05;1.40;;;;;;;22.41;55.03;96945.28;4964377;28;20385;-70
2023/07/13 10:14:02;;;;;;;5.00;1.30;;;;;;;22.15;57.45;96939.56;4965218;28;20038;-67
2023/07/13 10:16:34;;;;;;;12.52;1.90;;;;;;;21.32;63.17;96935.94;4960959;28;20070;-69
2023/07/13 10:19:22;;;;;;;6.75;1.38;;;;;;;22.67;62.68;96937.78;4966229;28;20043;-70
2023/07/13 10:21:54;;;;;;;4.50;1.63;;;;;;;23.93;58.59;96932.03;4964287;28;20046;-69
2023/07/13 10:24:21;;;;;;;6.07;1.27;;;;;;;24.24;55.90;96940.56;4959972;28;20038;-69
2023/07/13 10:27:05;;;;;;;6.55;1.35;;;;;;;24.73;53.46;96946.91;4965383;28;20047;-68
2023/07/13 10:29:36;;;;;;;3.25;1.33;;;;;;;24.31;53.73;96942.34;4970493;28;20368;-69
2023/07/13 10:32:09;;;;;;;6.68;1.52;;;;;;;24.27;54.29;96940.91;4983701;28;20042;-67
2023/07/13 10:34:35;;;;;;;4.97;1.60;;;;;;;23.90;59.92;96940.56;4984342;28;20056;-69
2023/07/13 10:37:01;;;;;;;5.70;1.73;;;;;;;23.37;60.99;96936.19;4986160;28;20034;-69
2023/07/13 10:39:28;;;;;;;7.43;1.70;;;;;;;23.04;63.47;96939.16;4980946;28;20049;-69
2023/07/13 10:41:57;;;;;;;6.15;1.63;;;;;;;22.84;62.82;96930.16;4982412;28;20065;-69
2023/07/13 10:44:28;;;;;;;6.30;1.77;;;;;;;22.66;63.87;96939.81;4978867;28;20523;-69
2023/07/13 10:46:58;;;;;;;3.70;1.45;;;;;;;22.51;66.17;96933.06;4983975;28;20427;-69
2023/07/13 10:49:26;;;;;;;8.07;1.65;;;;;;;22.62;67.14;96941.91;4979157;28;20953;-68
2023/07/13 10:51:52;;;;;;;9.85;1.80;;;;;;;22.94;68.19;96945.81;4983319;28;20460;-67
2023/07/13 10:54:27;;;;;;;8.93;1.88;;;;;;;22.86;69.14;96950.81;4977761;28;20557;-70
2023/07/13 10:57:09;;;;;;;5.47;1.65;;;;;;;22.60;67.74;96946.34;4968896;28;20115;-68
2023/07/13 10:59:34;;;;;;;4.78;1.90;;;;;;;22.33;68.90;96953.06;4963655;28;20050;-68
2023/07/13 11:02:04;;;;;;;7.20;2.30;;;;;;;22.41;70.05;96946.06;4964540;28;20518;-68
2023/07/13 11:04:47;;;;;;;5.63;1.90;;;;;;;22.78;69.85;96937.47;4962520;28;20050;-68
2023/07/13 11:07:52;;;;;;;9.95;1.90;;;;;;;23.13;67.26;96935.69;4959794;28;20047;-68
2023/07/13 11:10:54;;;;;;;4.57;1.70;;;;;;;23.37;61.91;96933.41;4895509;28;20050;-69
2023/07/13 11:13:57;;;;;;;7.20;1.63;;;;;;;23.83;58.26;96938.75;4957103;28;20078;-68
2023/07/13 11:16:22;;;;;;;11.07;2.10;;;;;;;24.11;60.19;96930.63;4959626;28;20982;-70
2023/07/13 11:19:15;;;;;;;6.82;1.90;;;;;;;24.30;56.51;96937.97;4963074;28;20035;-68
2023/07/13 11:22:13;;;;;;;6.80;1.75;;;;;;;24.47;57.75;96941.41;4942999;28;20055;-68
2023/07/13 11:24:48;;;;;;;4.55;1.60;;;;;;;24.65;56.45;96940.00;4964119;28;20504;-69
2023/07/13 11:27:36;;;;;;;6.35;1.70;;;;;;;24.61;56.06;96938.13;4960424;28;20042;-69
2023/07/13 11:30:25;;;;;;;6.05;1.58;;;;;;;24.48;57.69;96940.16;4963981;28;20082;-72